createdAt,value
2023-03-26T07:23:24.139Z,20.15
2023-03-26T08:04:25.608Z,9.73
2023-03-26T08:07:08.343Z,10.20
2023-03-26T08:38:06.608Z,10.20
2023-03-26T08:41:14.467Z,10.10
2023-03-26T08:47:16.471Z,8.27
2023-03-26T08:56:06.848Z,8.20
2023-03-26T09:11:39.572Z,9.07
2023-03-26T11:42:37.718Z,0.67
2023-03-26T11:45:21.026Z,2.83
2023-03-26T11:47:58.558Z,0.63
2023-03-26T11:50:33.139Z,1.25
2023-03-26T11:53:07.674Z,2.55
2023-03-26T11:55:35.745Z,3.50
2023-03-26T11:58:06.308Z,1.45
2023-03-26T12:00:34.383Z,2.63
2023-03-26T12:03:02.316Z,1.38
2023-03-26T12:05:36.574Z,0.70
2023-03-26T12:08:14.537Z,1.58
2023-03-26T12:11:01.689Z,1.55
2023-03-26T12:13:39.352Z,1.45
2023-03-26T12:16:18.356Z,2.05
2023-03-26T12:18:47.716Z,1.77
2023-03-26T12:21:17.152Z,0.98
2023-03-26T12:23:44.697Z,3.42
2023-03-26T12:26:15.159Z,0.77
2023-03-26T12:28:50.609Z,2.00
2023-03-26T12:31:19.505Z,1.40
2023-03-26T12:33:54.023Z,0.90
2023-03-26T12:36:30.517Z,0.38
2023-03-26T12:39:42.820Z,1.00
2023-03-26T12:43:40.204Z,1.20
2023-03-26T12:44:59.121Z,1.02
2023-03-26T12:47:59.726Z,1.42
2023-03-26T12:50:34.190Z,0.82
2023-03-26T12:55:56.356Z,1.73
2023-03-26T12:58:43.788Z,0.93
2023-03-26T13:01:16.322Z,1.88
2023-03-26T13:04:03.639Z,0.77
2023-03-26T13:06:59.180Z,1.40
2023-03-26T13:09:36.073Z,1.20
2023-03-26T13:12:33.949Z,1.58
2023-03-26T13:15:15.163Z,1.50
2023-03-26T13:18:00.543Z,0.70
2023-03-26T13:21:02.254Z,1.55
2023-03-26T13:23:33.086Z,1.75
2023-03-26T13:26:14.389Z,1.10
2023-03-26T13:28:50.929Z,2.25
2023-03-26T13:31:36.956Z,1.80
2023-03-26T13:34:10.952Z,1.20
2023-03-26T13:39:15.047Z,1.30
2023-03-26T13:42:10.076Z,0.63
2023-03-26T13:44:44.813Z,1.65
2023-03-26T13:47:49.032Z,0.55
2023-03-26T13:50:26.352Z,2.40
2023-03-26T13:53:03.285Z,1.58
